createdAt,value
2018-11-26T00:00:07.564Z,96.45
2018-11-26T00:01:07.564Z,96.45
2018-11-26T00:02:07.608Z,97.08
2018-11-26T00:03:07.533Z,97.29
2018-11-26T00:04:07.519Z,97.29
2018-11-26T00:05:07.512Z,97.56
2018-11-26T00:06:07.497Z,97.35
2018-11-26T00:07:17.654Z,97.03
2018-11-26T00:08:07.476Z,97.67
2018-11-26T00:09:07.467Z,97.14
2018-11-26T00:10:07.462Z,97.41
2018-11-26T00:11:07.443Z,96.36
2018-11-26T00:12:07.443Z,96.61
2018-11-26T00:13:07.467Z,96.09
2018-11-26T00:14:07.414Z,96.41
2018-11-26T00:15:07.411Z,96.36
2018-11-26T00:16:07.392Z,96.61
2018-11-26T00:17:07.385Z,96.61
2018-11-26T00:18:07.373Z,96.51
2018-11-26T00:19:07.400Z,96.51
2018-11-26T00:20:07.351Z,96.30
2018-11-26T00:21:07.342Z,96.93
2018-11-26T00:22:07.338Z,96.45
2018-11-26T00:23:07.324Z,96.66
2018-11-26T00:24:07.308Z,96.45
2018-11-26T00:25:07.338Z,96.45
2018-11-26T00:26:07.287Z,96.66
2018-11-26T00:27:07.278Z,96.45
2018-11-26T00:28:07.274Z,96.34
2018-11-26T00:29:07.259Z,96.81
2018-11-26T00:30:07.242Z,96.59
2018-11-26T00:31:07.344Z,96.49
2018-11-26T00:32:07.226Z,97.75
2018-11-26T00:33:07.208Z,96.39
2018-11-26T00:34:07.203Z,96.91
2018-11-26T00:35:07.188Z,97.75
2018-11-26T00:36:07.181Z,96.91
2018-11-26T00:37:07.209Z,97.02
2018-11-26T00:38:17.409Z,97.65
2018-11-26T00:39:07.152Z,96.81
2018-11-26T00:40:07.134Z,97.02
2018-11-26T00:41:07.126Z,97.44
2018-11-26T00:42:07.122Z,96.39
2018-11-26T00:43:07.124Z,96.49
2018-11-26T00:44:07.101Z,96.59
2018-11-26T00:45:07.084Z,96.70
2018-11-26T00:46:07.070Z,96.85
2018-11-26T00:47:07.074Z,97.17
2018-11-26T00:48:07.088Z,96.64
2018-11-26T00:49:07.080Z,96.37
2018-11-26T00:50:07.033Z,96.68
2018-11-26T00:51:07.021Z,96.89
2018-11-26T00:52:07.009Z,96.89
2018-11-26T00:53:07.005Z,96.68
2018-11-26T00:54:06.995Z,97.78
2018-11-26T00:55:07.010Z,96.62
2018-11-26T00:56:06.967Z,96.73
2018-11-26T00:57:06.955Z,96.73
2018-11-26T00:58:06.949Z,96.62
2018-11-26T00:59:06.937Z,97.25
2018-11-26T01:00:06.940Z,96.66
2018-11-26T01:01:06.954Z,97.09
2018-11-26T01:02:06.901Z,97.19
2018-11-26T01:03:06.902Z,97.19
2018-11-26T01:04:06.888Z,97.57
2018-11-26T01:05:06.871Z,97.67
2018-11-26T01:06:06.859Z,97.57
2018-11-26T01:07:07.034Z,97.67
2018-11-26T01:08:06.844Z,97.93
2018-11-26T01:09:17.298Z,97.78
2018-11-26T01:10:06.827Z,97.89
2018-11-26T01:11:06.807Z,97.89
2018-11-26T01:12:06.796Z,97.89
2018-11-26T01:13:06.819Z,97.89
2018-11-26T01:14:06.783Z,97.57
2018-11-26T01:15:06.767Z,98.04
2018-11-26T01:16:06.757Z,97.89
2018-11-26T01:17:06.746Z,97.72
2018-11-26T01:18:06.738Z,97.83
2018-11-26T01:19:06.756Z,97.83
2018-11-26T01:20:06.717Z,97.93
2018-11-26T01:21:06.701Z,97.61
2018-11-26T01:22:06.700Z,97.83
2018-11-26T01:23:06.677Z,97.61
2018-11-26T01:24:06.674Z,97.93
2018-11-26T01:25:06.696Z,97.89
2018-11-26T01:26:06.650Z,97.89
2018-11-26T01:27:06.636Z,97.99
2018-11-26T01:28:06.631Z,98.10
2018-11-26T01:29:06.613Z,97.89
2018-11-26T01:30:06.610Z,97.47
2018-11-26T01:31:06.629Z,96.66
2018-11-26T01:32:06.582Z,97.47
2018-11-26T01:33:06.575Z,97.93
2018-11-26T01:34:06.564Z,97.57
2018-11-26T01:35:06.557Z,97.61
2018-11-26T01:36:06.546Z,97.09
2018-11-26T01:37:06.567Z,97.93
2018-11-26T01:38:06.519Z,96.98
2018-11-26T01:39:06.513Z,97.51
2018-11-26T01:40:18.022Z,97.72
2018-11-26T01:41:06.490Z,96.94
2018-11-26T01:42:06.480Z,97.30
2018-11-26T01:43:06.511Z,97.13
2018-11-26T01:44:06.462Z,97.09
2018-11-26T01:45:06.451Z,96.81
2018-11-26T01:46:06.445Z,96.98
2018-11-26T01:47:06.433Z,96.92
2018-11-26T01:48:06.426Z,96.92
2018-11-26T01:49:06.441Z,97.66
2018-11-26T01:50:06.390Z,97.03
2018-11-26T01:51:06.385Z,97.98
2018-11-26T01:52:06.373Z,97.61
2018-11-26T01:53:06.365Z,97.45
2018-11-26T01:54:06.349Z,97.72
2018-11-26T01:55:06.519Z,97.41
2018-11-26T01:56:06.336Z,97.55
2018-11-26T01:57:06.317Z,97.09
2018-11-26T01:58:06.313Z,97.03
2018-11-26T01:59:06.300Z,97.07
2018-11-26T02:00:06.291Z,96.96
2018-11-26T02:01:06.315Z,96.96
2018-11-26T02:02:06.267Z,96.37
2018-11-26T02:03:06.264Z,96.48
2018-11-26T02:04:06.249Z,96.58
2018-11-26T02:05:06.235Z,97.11
2018-11-26T02:06:06.241Z,97.01
2018-11-26T02:07:06.234Z,97.33
2018-11-26T02:08:06.206Z,96.80
2018-11-26T02:09:06.227Z,96.90
2018-11-26T02:10:06.184Z,96.73
2018-11-26T02:11:16.530Z,96.90
2018-11-26T02:12:06.160Z,96.84
2018-11-26T02:13:06.193Z,97.16
2018-11-26T02:14:06.142Z,97.85
2018-11-26T02:15:06.130Z,97.85
2018-11-26T02:16:06.129Z,97.64
2018-11-26T02:17:06.116Z,96.90
2018-11-26T02:18:06.100Z,97.26
2018-11-26T02:19:06.161Z,97.47
2018-11-26T02:20:06.083Z,97.05
2018-11-26T02:21:06.070Z,97.16
2018-11-26T02:22:06.058Z,97.37
2018-11-26T02:23:06.045Z,97.31
2018-11-26T02:24:06.038Z,97.16
2018-11-26T02:25:06.068Z,96.46
2018-11-26T02:26:06.017Z,96.56
2018-11-26T02:27:06.006Z,96.88
2018-11-26T02:28:05.998Z,96.56
2018-11-26T02:29:05.985Z,97.20
2018-11-26T02:30:05.984Z,97.52
2018-11-26T02:31:06.015Z,96.39
2018-11-26T02:32:05.951Z,95.44
2018-11-26T02:33:05.947Z,94.06
2018-11-26T02:34:05.935Z,94.81
2018-11-26T02:35:05.928Z,93.57
2018-11-26T02:36:05.909Z,94.78
2018-11-26T02:37:05.944Z,94.15
2018-11-26T02:38:05.897Z,94.25
2018-11-26T02:39:05.879Z,94.29
2018-11-26T02:40:05.871Z,94.93
2018-11-26T02:41:05.863Z,94.62
2018-11-26T02:42:16.199Z,94.93
2018-11-26T02:43:05.835Z,95.53
2018-11-26T02:44:05.827Z,96.27
2018-11-26T02:45:05.818Z,97.14
2018-11-26T02:46:05.810Z,97.73
2018-11-26T02:47:05.802Z,97.83
2018-11-26T02:48:05.828Z,97.09
2018-11-26T02:49:05.783Z,96.78
2018-11-26T02:50:05.771Z,96.29
2018-11-26T02:51:05.760Z,95.97
2018-11-26T02:52:05.743Z,96.14
2018-11-26T02:53:05.737Z,97.31
2018-11-26T02:54:05.892Z,96.78
2018-11-26T02:55:05.718Z,96.56
2018-11-26T02:56:05.711Z,96.35
2018-11-26T02:57:05.697Z,96.25
2018-11-26T02:58:05.683Z,95.40
2018-11-26T02:59:05.676Z,95.02
2018-11-26T03:00:05.698Z,95.23
2018-11-26T03:01:05.652Z,95.72
2018-11-26T03:02:05.644Z,96.78
2018-11-26T03:03:05.633Z,97.09
2018-11-26T03:04:05.624Z,96.98
2018-11-26T03:05:05.609Z,97.79
2018-11-26T03:06:05.636Z,98.49
2018-11-26T03:07:05.594Z,98.81
2018-11-26T03:08:05.588Z,98.13
2018-11-26T03:09:05.582Z,97.91
2018-11-26T03:10:05.558Z,97.87
2018-11-26T03:11:05.553Z,97.49
2018-11-26T03:12:05.577Z,97.39
2018-11-26T03:13:16.489Z,97.87
2018-11-26T03:14:05.519Z,98.08
2018-11-26T03:15:05.510Z,96.64
2018-11-26T03:16:05.498Z,95.69
2018-11-26T03:17:05.483Z,94.46
2018-11-26T03:18:05.503Z,93.55
2018-11-26T03:19:05.472Z,93.28
2018-11-26T03:20:05.451Z,93.43
2018-11-26T03:21:05.443Z,93.32
2018-11-26T03:22:05.439Z,93.64
2018-11-26T03:23:05.420Z,94.64
2018-11-26T03:24:05.588Z,94.85
2018-11-26T03:25:05.404Z,94.64
2018-11-26T03:26:05.400Z,94.10
2018-11-26T03:27:05.386Z,95.10
2018-11-26T03:28:05.368Z,94.25
2018-11-26T03:29:05.360Z,94.78
2018-11-26T03:30:05.399Z,94.36
2018-11-26T03:31:05.348Z,93.87
2018-11-26T03:32:05.331Z,94.19
2018-11-26T03:33:05.318Z,94.19
2018-11-26T03:34:05.309Z,95.91
2018-11-26T03:35:05.298Z,97.08
2018-11-26T03:36:05.303Z,97.03
2018-11-26T03:37:05.282Z,97.73
2018-11-26T03:38:05.268Z,96.98
2018-11-26T03:39:05.260Z,95.82
2018-11-26T03:40:05.243Z,94.70
2018-11-26T03:41:05.241Z,93.96
2018-11-26T03:42:05.264Z,94.32
2018-11-26T03:43:05.216Z,94.89
2018-11-26T03:44:15.752Z,95.38
2018-11-26T03:45:05.196Z,95.27
2018-11-26T03:46:05.185Z,94.74
2018-11-26T03:47:05.174Z,94.85
2018-11-26T03:48:05.191Z,94.85
2018-11-26T03:49:05.160Z,94.74
2018-11-26T03:50:05.145Z,95.06
2018-11-26T03:51:05.135Z,95.23
2018-11-26T03:52:05.126Z,95.65
2018-11-26T03:53:05.112Z,95.02
2018-11-26T03:54:05.167Z,94.81
2018-11-26T03:55:05.088Z,95.23
2018-11-26T03:56:05.087Z,95.54
2018-11-26T03:57:05.071Z,94.06
2018-11-26T03:58:05.056Z,93.79
2018-11-26T03:59:05.053Z,93.04
2018-11-26T04:00:05.072Z,93.89
2018-11-26T04:01:05.035Z,93.93
2018-11-26T04:02:05.019Z,94.36
2018-11-26T04:03:05.012Z,94.68
2018-11-26T04:04:05.006Z,94.36
2018-11-26T04:05:04.986Z,94.68
2018-11-26T04:06:05.023Z,95.10
2018-11-26T04:07:04.966Z,95.17
2018-11-26T04:08:04.955Z,94.57
2018-11-26T04:09:04.952Z,94.53
2018-11-26T04:10:04.943Z,94.57
2018-11-26T04:11:04.925Z,94.57
2018-11-26T04:12:04.945Z,94.57
2018-11-26T04:13:04.910Z,94.78
2018-11-26T04:14:04.893Z,94.78
2018-11-26T04:15:17.103Z,94.68
2018-11-26T04:16:04.875Z,94.82
2018-11-26T04:17:04.860Z,94.93
2018-11-26T04:18:04.883Z,95.47
2018-11-26T04:19:04.847Z,94.19
2018-11-26T04:20:04.832Z,94.62
2018-11-26T04:21:04.824Z,93.44
2018-11-26T04:22:04.808Z,94.02
2018-11-26T04:23:04.800Z,93.91
2018-11-26T04:24:04.836Z,94.12
2018-11-26T04:25:04.777Z,94.23
2018-11-26T04:26:04.766Z,95.19
2018-11-26T04:27:04.760Z,95.40
2018-11-26T04:28:04.747Z,94.87
2018-11-26T04:29:04.752Z,95.40
2018-11-26T04:30:04.822Z,94.59
2018-11-26T04:31:04.720Z,94.91
2018-11-26T04:32:04.714Z,94.27
2018-11-26T04:33:04.700Z,94.91
2018-11-26T04:34:04.684Z,94.70
2018-11-26T04:35:04.706Z,94.91
2018-11-26T04:36:04.702Z,94.59
2018-11-26T04:37:04.654Z,94.59
2018-11-26T04:38:04.650Z,94.49
2018-11-26T04:39:04.636Z,94.49
2018-11-26T04:40:04.622Z,95.02
2018-11-26T04:41:04.620Z,95.23
2018-11-26T04:42:04.679Z,95.44
2018-11-26T04:43:04.593Z,95.55
2018-11-26T04:44:04.581Z,95.44
2018-11-26T04:45:04.573Z,94.59
2018-11-26T04:46:15.383Z,94.85
2018-11-26T04:47:04.555Z,94.81
2018-11-26T04:48:04.577Z,94.21
2018-11-26T04:49:04.531Z,94.10
2018-11-26T04:50:04.525Z,94.74
2018-11-26T04:51:04.551Z,94.95
2018-11-26T04:52:04.500Z,94.74
2018-11-26T04:53:04.490Z,94.74
2018-11-26T04:54:04.664Z,94.85
2018-11-26T04:55:04.470Z,94.91
2018-11-26T04:56:04.456Z,95.02
2018-11-26T04:57:04.452Z,94.38
2018-11-26T04:58:04.442Z,94.10
2018-11-26T04:59:04.433Z,93.21
2018-11-26T05:00:04.454Z,94.21
2018-11-26T05:01:04.422Z,94.70
2018-11-26T05:02:04.401Z,94.70
2018-11-26T05:03:04.388Z,93.53
2018-11-26T05:04:04.377Z,93.32
2018-11-26T05:05:04.368Z,93.89
2018-11-26T05:06:04.392Z,94.10
2018-11-26T05:07:04.344Z,94.10
2018-11-26T05:08:04.337Z,93.68
2018-11-26T05:09:04.323Z,93.89
2018-11-26T05:10:04.316Z,93.57
2018-11-26T05:11:04.308Z,94.42
2018-11-26T05:12:04.326Z,94.81
2018-11-26T05:13:04.288Z,95.76
2018-11-26T05:14:04.277Z,94.27
2018-11-26T05:15:04.267Z,93.63
2018-11-26T05:16:04.251Z,93.53
2018-11-26T05:17:15.248Z,93.32
2018-11-26T05:18:04.231Z,93.32
2018-11-26T05:19:04.227Z,94.06
2018-11-26T05:20:04.215Z,93.96
2018-11-26T05:21:04.211Z,94.17
2018-11-26T05:22:04.202Z,94.76
2018-11-26T05:23:04.221Z,96.20
2018-11-26T05:24:04.171Z,97.02
2018-11-26T05:25:04.160Z,96.76
2018-11-26T05:26:04.157Z,96.06
2018-11-26T05:27:04.156Z,94.78
2018-11-26T05:28:04.133Z,93.83
2018-11-26T05:29:04.169Z,93.87
2018-11-26T05:30:04.109Z,93.76
2018-11-26T05:31:04.105Z,93.40
2018-11-26T05:32:04.090Z,94.57
2018-11-26T05:33:04.077Z,95.27
2018-11-26T05:34:04.069Z,94.85
2018-11-26T05:35:04.099Z,95.59
2018-11-26T05:36:04.047Z,95.27
2018-11-26T05:37:04.035Z,94.21
2018-11-26T05:38:04.031Z,96.29
2018-11-26T05:39:04.019Z,96.19
2018-11-26T05:40:04.006Z,96.08
2018-11-26T05:41:04.175Z,95.93
2018-11-26T05:42:03.988Z,97.09
2018-11-26T05:43:03.973Z,97.16
2018-11-26T05:44:04.554Z,97.43
2018-11-26T05:45:03.959Z,97.49
2018-11-26T05:46:03.950Z,97.91
2018-11-26T05:47:03.976Z,98.93
2018-11-26T05:48:13.761Z,98.74
2018-11-26T05:49:03.919Z,98.94
2018-11-26T05:50:03.905Z,99.26
2018-11-26T05:51:03.892Z,98.31
2018-11-26T05:52:03.885Z,98.84
2018-11-26T05:53:04.051Z,98.80
2018-11-26T05:54:03.868Z,98.69
2018-11-26T05:55:03.895Z,98.54
2018-11-26T05:56:03.844Z,98.54
2018-11-26T05:57:03.844Z,98.75
2018-11-26T05:58:03.830Z,97.80
2018-11-26T05:59:03.851Z,98.01
2018-11-26T06:00:03.801Z,97.91
2018-11-26T06:01:03.794Z,98.22
2018-11-26T06:02:03.782Z,97.91
2018-11-26T06:03:03.772Z,97.49
2018-11-26T06:04:03.758Z,97.91
2018-11-26T06:05:03.799Z,97.80
2018-11-26T06:06:03.738Z,97.27
2018-11-26T06:07:03.750Z,97.06
2018-11-26T06:08:03.720Z,97.38
2018-11-26T06:09:03.707Z,97.27
2018-11-26T06:10:03.697Z,97.49
2018-11-26T06:11:03.726Z,97.44
2018-11-26T06:12:03.673Z,96.81
2018-11-26T06:13:03.665Z,98.01
2018-11-26T06:14:03.651Z,97.33
2018-11-26T06:15:03.641Z,97.33
2018-11-26T06:16:03.650Z,97.33
2018-11-26T06:17:03.765Z,97.33
2018-11-26T06:18:03.611Z,97.33
2018-11-26T06:19:13.667Z,97.23
2018-11-26T06:20:03.586Z,97.55
2018-11-26T06:21:03.583Z,97.55
2018-11-26T06:22:03.574Z,97.33
2018-11-26T06:23:03.595Z,97.65
2018-11-26T06:24:03.551Z,97.13
2018-11-26T06:25:03.540Z,97.33
2018-11-26T06:26:03.528Z,97.44
2018-11-26T06:27:03.531Z,97.33
2018-11-26T06:28:03.502Z,97.33
2018-11-26T06:29:03.528Z,97.29
2018-11-26T06:30:03.484Z,97.23
2018-11-26T06:31:03.479Z,97.33
2018-11-26T06:32:03.473Z,97.29
2018-11-26T06:33:03.453Z,97.33
2018-11-26T06:34:03.438Z,97.29
2018-11-26T06:35:03.467Z,97.33
2018-11-26T06:36:03.418Z,97.19
2018-11-26T06:37:03.418Z,97.13
2018-11-26T06:38:03.400Z,97.29
2018-11-26T06:39:03.387Z,97.19
2018-11-26T06:40:03.382Z,97.50
2018-11-26T06:41:03.410Z,97.39
2018-11-26T06:42:03.369Z,97.39
2018-11-26T06:43:03.345Z,97.19
2018-11-26T06:44:03.425Z,97.25
2018-11-26T06:45:03.323Z,97.29
2018-11-26T06:46:03.310Z,97.19
2018-11-26T06:47:03.343Z,97.45
2018-11-26T06:48:03.332Z,97.29
2018-11-26T06:49:03.339Z,97.19
2018-11-26T06:50:13.484Z,97.19
2018-11-26T06:51:03.262Z,97.29
2018-11-26T06:52:03.248Z,97.39
2018-11-26T06:53:03.271Z,97.25
2018-11-26T06:54:03.226Z,97.14
2018-11-26T06:55:03.225Z,97.25
2018-11-26T06:56:03.208Z,97.03
2018-11-26T06:57:03.204Z,97.35
2018-11-26T06:58:03.193Z,96.61
2018-11-26T06:59:03.208Z,96.41
2018-11-26T07:00:03.165Z,96.83
2018-11-26T07:01:03.155Z,96.51
2018-11-26T07:02:03.141Z,97.25
2018-11-26T07:03:03.131Z,96.47
2018-11-26T07:04:03.125Z,96.57
2018-11-26T07:05:03.155Z,96.78
2018-11-26T07:06:03.104Z,96.67
2018-11-26T07:07:03.090Z,96.57
2018-11-26T07:08:03.083Z,96.04
2018-11-26T07:09:03.067Z,96.11
2018-11-26T07:10:03.074Z,96.42
2018-11-26T07:11:03.121Z,96.53
2018-11-26T07:12:03.040Z,96.63
2018-11-26T07:13:03.026Z,96.42
2018-11-26T07:14:03.014Z,95.79
2018-11-26T07:15:03.025Z,95.47
2018-11-26T07:16:03.010Z,95.26
2018-11-26T07:17:03.024Z,95.37
2018-11-26T07:18:02.975Z,95.37
2018-11-26T07:19:02.967Z,95.37
2018-11-26T07:20:02.952Z,95.26
2018-11-26T07:21:13.392Z,95.26
2018-11-26T07:22:02.933Z,95.47
2018-11-26T07:23:02.938Z,95.11
2018-11-26T07:24:02.909Z,95.26
2018-11-26T07:25:02.936Z,95.11
2018-11-26T07:26:02.891Z,95.22
2018-11-26T07:27:02.882Z,94.95
2018-11-26T07:28:02.870Z,95.22
2018-11-26T07:29:02.897Z,94.95
2018-11-26T07:30:02.876Z,95.22
2018-11-26T07:31:02.837Z,95.22
2018-11-26T07:32:02.825Z,94.95
2018-11-26T07:33:02.812Z,94.95
2018-11-26T07:34:02.811Z,94.95
2018-11-26T07:35:02.884Z,95.22
2018-11-26T07:36:02.836Z,95.01
2018-11-26T07:37:02.774Z,95.11
2018-11-26T07:38:02.764Z,95.22
2018-11-26T07:39:03.303Z,95.43
2018-11-26T07:40:02.745Z,95.57
2018-11-26T07:41:02.778Z,95.57
2018-11-26T07:42:02.716Z,95.05
2018-11-26T07:43:02.713Z,94.90
2018-11-26T07:44:02.695Z,95.47
2018-11-26T07:45:02.697Z,95.47
2018-11-26T07:46:02.677Z,95.47
2018-11-26T07:47:02.681Z,95.37
2018-11-26T07:48:02.663Z,95.47
2018-11-26T07:49:02.649Z,95.37
2018-11-26T07:50:02.639Z,94.73
2018-11-26T07:51:02.629Z,94.53
2018-11-26T07:52:13.469Z,94.73
2018-11-26T07:53:02.603Z,94.21
2018-11-26T07:54:02.589Z,94.48
2018-11-26T07:55:02.584Z,94.38
2018-11-26T07:56:02.663Z,94.17
2018-11-26T07:57:02.562Z,93.85
2018-11-26T07:58:02.620Z,93.95
2018-11-26T07:59:02.533Z,93.53
2018-11-26T08:00:02.524Z,93.95
2018-11-26T08:01:02.514Z,93.53
2018-11-26T08:02:02.520Z,94.17
2018-11-26T08:03:02.506Z,93.80
2018-11-26T08:04:02.661Z,94.27
2018-11-26T08:05:02.477Z,92.96
2018-11-26T08:06:08.789Z,93.60
2018-11-26T08:07:03.462Z,93.49
2018-11-26T08:08:02.461Z,93.43
2018-11-26T08:09:02.429Z,93.38
2018-11-26T08:10:02.470Z,93.53
2018-11-26T08:11:02.411Z,93.07
2018-11-26T08:12:03.296Z,92.65
2018-11-26T08:13:02.405Z,92.54
2018-11-26T08:14:02.374Z,93.18
2018-11-26T08:15:02.366Z,92.90
2018-11-26T08:16:02.399Z,93.07
2018-11-26T08:17:02.410Z,92.86
2018-11-26T08:18:02.334Z,93.28
2018-11-26T08:19:02.351Z,92.65
2018-11-26T08:20:02.314Z,93.70
2018-11-26T08:21:02.306Z,93.43
2018-11-26T08:22:02.329Z,93.53
2018-11-26T08:23:13.060Z,93.70
2018-11-26T08:24:02.271Z,93.80
2018-11-26T08:25:02.266Z,93.32
2018-11-26T08:26:02.251Z,93.70
2018-11-26T08:27:02.241Z,93.38
2018-11-26T08:28:02.276Z,93.60
2018-11-26T08:29:02.220Z,93.07
2018-11-26T08:30:02.212Z,92.82
2018-11-26T08:31:02.203Z,92.82
2018-11-26T08:32:02.195Z,92.92
2018-11-26T08:33:02.182Z,93.13
2018-11-26T08:34:02.200Z,92.86
2018-11-26T08:35:02.151Z,92.33
2018-11-26T08:36:02.144Z,93.01
2018-11-26T08:37:02.136Z,92.90
2018-11-26T08:38:02.137Z,93.11
2018-11-26T08:39:02.115Z,93.15
2018-11-26T08:40:02.191Z,93.05
2018-11-26T08:41:02.093Z,93.89
2018-11-26T08:42:02.087Z,93.99
2018-11-26T08:43:02.079Z,93.85
2018-11-26T08:44:02.789Z,93.68
2018-11-26T08:45:03.144Z,93.37
2018-11-26T08:46:02.334Z,93.05
2018-11-26T08:47:02.026Z,93.26
2018-11-26T08:48:02.020Z,94.10
2018-11-26T08:49:02.006Z,93.99
2018-11-26T08:50:02.002Z,93.37
2018-11-26T08:51:02.039Z,93.11
2018-11-26T08:52:01.982Z,93.11
2018-11-26T08:53:01.967Z,93.11
2018-11-26T08:54:12.039Z,92.80
2018-11-26T08:55:01.945Z,92.90
2018-11-26T08:56:01.947Z,92.96
2018-11-26T08:57:01.943Z,93.07
2018-11-26T08:58:01.915Z,92.86
2018-11-26T08:59:01.910Z,91.91
2018-11-26T09:00:01.900Z,92.02
2018-11-26T09:01:01.889Z,91.60
2018-11-26T09:02:01.872Z,91.03
2018-11-26T09:03:01.954Z,90.99
2018-11-26T09:04:01.851Z,90.88
2018-11-26T09:05:01.840Z,90.46
2018-11-26T09:06:01.825Z,90.11
2018-11-26T09:07:01.932Z,89.05
2018-11-26T09:08:01.805Z,89.41
2018-11-26T09:09:01.834Z,90.00
2018-11-26T09:10:01.782Z,90.36
2018-11-26T09:11:01.771Z,90.92
2018-11-26T09:12:01.772Z,91.03
2018-11-26T09:13:01.756Z,90.82
2018-11-26T09:14:01.779Z,91.03
2018-11-26T09:15:01.781Z,91.24
2018-11-26T09:16:01.720Z,91.03
2018-11-26T09:17:01.720Z,91.03
2018-11-26T09:18:01.697Z,91.35
2018-11-26T09:19:01.695Z,91.03
2018-11-26T09:20:01.683Z,90.88
2018-11-26T09:21:01.710Z,90.88
2018-11-26T09:22:01.664Z,90.42
2018-11-26T09:23:01.647Z,89.94
2018-11-26T09:24:01.956Z,90.19
2018-11-26T09:25:11.851Z,90.56
2018-11-26T09:26:01.714Z,90.53
2018-11-26T09:27:01.640Z,89.47
2018-11-26T09:28:01.592Z,89.43
2018-11-26T09:29:01.578Z,89.47
2018-11-26T09:30:01.571Z,89.47
2018-11-26T09:31:01.557Z,89.54
2018-11-26T09:32:01.556Z,89.07
2018-11-26T09:33:01.575Z,89.07
2018-11-26T09:34:01.530Z,87.46
2018-11-26T09:35:01.526Z,87.46
2018-11-26T09:36:01.505Z,87.15
2018-11-26T09:37:01.497Z,87.36
2018-11-26T09:38:01.494Z,88.02
2018-11-26T09:39:01.518Z,88.55
2018-11-26T09:40:01.471Z,88.91
2018-11-26T09:41:01.453Z,90.34
2018-11-26T09:42:01.452Z,89.35
2018-11-26T09:43:01.433Z,87.70
2018-11-26T09:44:01.416Z,86.76
2018-11-26T09:45:01.598Z,87.00
2018-11-26T09:46:01.396Z,87.74
2018-11-26T09:47:01.408Z,87.52
2018-11-26T09:48:01.385Z,87.32
2018-11-26T09:49:01.362Z,87.74
2018-11-26T09:50:01.356Z,88.05
2018-11-26T09:51:01.378Z,87.42
2018-11-26T09:52:01.334Z,88.16
2018-11-26T09:53:01.323Z,87.84
2018-11-26T09:54:01.306Z,87.74
2018-11-26T09:55:01.302Z,87.88
2018-11-26T09:56:11.381Z,87.84
2018-11-26T09:57:01.281Z,88.05
2018-11-26T09:58:01.263Z,88.89
2018-11-26T09:59:01.256Z,88.37
2018-11-26T10:00:01.250Z,88.09
2018-11-26T10:01:01.286Z,89.04
2018-11-26T10:02:01.403Z,88.93
2018-11-26T10:03:01.215Z,89.50
2018-11-26T10:04:01.198Z,88.97
2018-11-26T10:05:01.194Z,90.38
2018-11-26T10:06:01.182Z,90.59
2018-11-26T10:07:01.170Z,90.91
2018-11-26T10:08:01.203Z,90.66
2018-11-26T10:09:01.152Z,90.44
2018-11-26T10:10:01.142Z,89.35
2018-11-26T10:11:01.167Z,89.18
2018-11-26T10:12:01.119Z,89.71
2018-11-26T10:13:01.108Z,90.17
2018-11-26T10:14:01.116Z,90.91
2018-11-26T10:15:01.089Z,90.84
2018-11-26T10:16:01.071Z,91.58
2018-11-26T10:17:01.071Z,91.78
2018-11-26T10:18:01.065Z,92.52
2018-11-26T10:19:01.041Z,91.78
2018-11-26T10:20:01.082Z,91.22
2018-11-26T10:21:01.038Z,90.80
2018-11-26T10:22:01.010Z,90.94
2018-11-26T10:23:01.002Z,91.26
2018-11-26T10:24:00.994Z,91.26
2018-11-26T10:25:05.745Z,91.58
2018-11-26T10:26:02.017Z,91.47
2018-11-26T10:27:11.090Z,91.16
2018-11-26T10:28:00.946Z,91.22
2018-11-26T10:29:00.941Z,90.91
2018-11-26T10:30:00.927Z,90.27
2018-11-26T10:31:00.922Z,90.23
2018-11-26T10:32:01.021Z,89.39
2018-11-26T10:33:00.895Z,89.25
2018-11-26T10:34:00.891Z,88.97
2018-11-26T10:35:00.878Z,89.39
2018-11-26T10:36:00.867Z,89.71
2018-11-26T10:37:00.851Z,89.32
2018-11-26T10:38:00.926Z,90.27
2018-11-26T10:39:00.843Z,91.11
2018-11-26T10:40:00.899Z,90.84
2018-11-26T10:41:00.810Z,90.78
2018-11-26T10:42:01.136Z,91.09
2018-11-26T10:43:00.787Z,91.41
2018-11-26T10:44:00.873Z,91.62
2018-11-26T10:45:00.763Z,91.62
2018-11-26T10:46:00.757Z,90.88
2018-11-26T10:47:00.745Z,90.63
2018-11-26T10:48:00.733Z,90.67
2018-11-26T10:49:00.718Z,90.73
2018-11-26T10:50:00.725Z,90.53
2018-11-26T10:51:00.706Z,89.43
2018-11-26T10:52:00.726Z,88.80
2018-11-26T10:53:00.689Z,89.01
2018-11-26T10:54:00.666Z,88.07
2018-11-26T10:55:00.658Z,88.84
2018-11-26T10:56:00.823Z,89.09
2018-11-26T10:57:00.643Z,90.36
2018-11-26T10:58:12.183Z,90.92
2018-11-26T10:59:00.645Z,90.56
2018-11-26T11:00:00.604Z,90.78
2018-11-26T11:01:00.595Z,90.78
2018-11-26T11:02:00.621Z,90.78
2018-11-26T11:03:00.577Z,90.78
2018-11-26T11:04:00.559Z,90.36
2018-11-26T11:05:00.567Z,90.63
2018-11-26T11:06:01.365Z,89.58
2018-11-26T11:07:00.533Z,89.01
2018-11-26T11:08:00.559Z,88.53
2018-11-26T11:09:00.518Z,88.91
2018-11-26T11:10:00.499Z,88.09
2018-11-26T11:11:00.537Z,85.81
2018-11-26T11:12:00.475Z,84.86
2018-11-26T11:13:00.468Z,84.13
2018-11-26T11:14:00.499Z,86.16
2018-11-26T11:15:00.441Z,86.72
2018-11-26T11:16:00.432Z,86.58
2018-11-26T11:17:00.420Z,86.69
2018-11-26T11:18:00.410Z,86.83
2018-11-26T11:19:00.399Z,86.62
2018-11-26T11:20:00.436Z,86.52
2018-11-26T11:21:00.390Z,86.83
2018-11-26T11:22:00.368Z,87.40
2018-11-26T11:23:00.357Z,88.02
2018-11-26T11:24:00.343Z,89.16
2018-11-26T11:25:00.340Z,89.58
2018-11-26T11:26:00.341Z,90.42
2018-11-26T11:27:00.316Z,90.67
2018-11-26T11:28:00.308Z,90.99
2018-11-26T11:29:10.315Z,91.41
2018-11-26T11:30:00.279Z,92.04
2018-11-26T11:31:00.273Z,91.41
2018-11-26T11:32:00.432Z,91.62
2018-11-26T11:34:00.238Z,91.83
2018-11-26T11:35:00.234Z,91.83
2018-11-26T11:36:00.220Z,91.83
2018-11-26T11:37:00.209Z,91.72
2018-11-26T11:38:00.233Z,92.40
2018-11-26T11:39:00.192Z,92.04
2018-11-26T11:40:00.172Z,92.35
2018-11-26T11:41:00.170Z,92.25
2018-11-26T11:42:00.161Z,91.83
2018-11-26T11:43:00.150Z,91.97
2018-11-26T11:44:00.169Z,92.40
2018-11-26T11:45:00.127Z,92.50
2018-11-26T11:46:00.113Z,92.19
2018-11-26T11:47:00.100Z,92.67
2018-11-26T11:48:00.099Z,92.29
2018-11-26T11:49:00.083Z,92.25
2018-11-26T11:50:00.236Z,91.97
2018-11-26T11:51:00.060Z,92.71
2018-11-26T11:52:00.048Z,92.67
2018-11-26T11:53:00.042Z,91.93
2018-11-26T11:54:00.034Z,91.83
2018-11-26T11:55:00.033Z,92.04
2018-11-26T11:56:00.019Z,92.04
2018-11-26T11:56:59.995Z,91.62
2018-11-26T11:57:59.987Z,90.88
2018-11-26T11:58:59.975Z,90.99
2018-11-26T12:00:10.073Z,91.45
2018-11-26T12:00:59.955Z,91.55
2018-11-26T12:01:59.975Z,92.14
2018-11-26T12:02:59.929Z,92.46
2018-11-26T12:03:59.920Z,92.29
2018-11-26T12:04:59.909Z,92.40
2018-11-26T12:05:59.901Z,92.25
2018-11-26T12:06:59.890Z,92.14
2018-11-26T12:07:59.946Z,92.40
2018-11-26T12:08:59.866Z,92.61
2018-11-26T12:09:59.860Z,92.77
2018-11-26T12:10:59.847Z,92.67
2018-11-26T12:11:59.837Z,92.82
2018-11-26T12:12:59.826Z,92.61
2018-11-26T12:13:59.912Z,92.77
2018-11-26T12:14:59.805Z,93.03
2018-11-26T12:15:59.801Z,92.71
2018-11-26T12:16:59.779Z,92.50
2018-11-26T12:17:59.772Z,92.71
2018-11-26T12:18:59.763Z,92.92
2018-11-26T12:19:59.783Z,92.92
2018-11-26T12:20:59.746Z,93.55
2018-11-26T12:21:59.744Z,93.87
2018-11-26T12:22:59.721Z,93.76
2018-11-26T12:23:59.709Z,93.76
2018-11-26T12:24:59.701Z,93.98
2018-11-26T12:25:59.727Z,93.45
2018-11-26T12:26:59.673Z,93.87
2018-11-26T12:27:59.671Z,93.98
2018-11-26T12:28:59.653Z,93.98
2018-11-26T12:29:59.647Z,93.66
2018-11-26T12:31:11.461Z,93.13
2018-11-26T12:31:59.620Z,93.13
2018-11-26T12:32:59.609Z,93.34
2018-11-26T12:33:59.602Z,92.92
2018-11-26T12:34:59.586Z,93.98
2018-11-26T12:35:59.587Z,94.12
2018-11-26T12:36:59.737Z,94.18
2018-11-26T12:37:59.557Z,94.34
2018-11-26T12:38:59.545Z,94.29
2018-11-26T12:39:59.536Z,94.08
2018-11-26T12:40:59.537Z,93.70
2018-11-26T12:42:04.152Z,94.34
2018-11-26T12:42:59.525Z,94.44
2018-11-26T12:43:59.494Z,94.02
2018-11-26T12:44:59.486Z,94.02
2018-11-26T12:45:59.471Z,94.23
2018-11-26T12:46:59.464Z,94.54
2018-11-26T12:47:59.458Z,94.86
2018-11-26T12:48:59.479Z,94.86
2018-11-26T12:49:59.432Z,94.86
2018-11-26T12:50:59.423Z,94.76
2018-11-26T12:51:59.410Z,95.11
2018-11-26T12:52:59.394Z,94.76